sensor_id;sensor_type;location;lat;lon;timestamp;pressure;altitude;pressure_sealevel;temperature;humidity
50774;BME280;36745;48.544;8.918;2024-02-04T00:01:47;98529.69;;;7.59;86.18
50774;BME280;36745;48.544;8.918;2024-02-04T00:05:07;98524.97;;;7.59;85.92
50774;BME280;36745;48.544;8.918;2024-02-04T00:08:27;98528.88;;;7.62;85.82
50774;BME280;36745;48.544;8.918;2024-02-04T00:11:46;98517.91;;;7.48;85.91
50774;BME280;36745;48.544;8.918;2024-02-04T00:15:06;98512.41;;;7.51;85.84
50774;BME280;36745;48.544;8.918;2024-02-04T00:18:26;98518.72;;;7.55;85.85
50774;BME280;36745;48.544;8.918;2024-02-04T00:21:46;98509.28;;;7.60;85.99
50774;BME280;36745;48.544;8.918;2024-02-04T00:25:06;98507.34;;;7.61;85.69
50774;BME280;36745;48.544;8.918;2024-02-04T00:28:25;98495.97;;;7.55;85.73
50774;BME280;36745;48.544;8.918;2024-02-04T00:31:47;98486.16;;;7.54;85.72
50774;BME280;36745;48.544;8.918;2024-02-04T00:35:08;98474.78;;;7.52;85.48
50774;BME280;36745;48.544;8.918;2024-02-04T00:38:27;98475.94;;;7.51;85.65
50774;BME280;36745;48.544;8.918;2024-02-04T00:41:47;98470.88;;;7.53;85.75
50774;BME280;36745;48.544;8.918;2024-02-04T00:45:07;98457.53;;;7.41;85.76
50774;BME280;36745;48.544;8.918;2024-02-04T00:48:27;98466.53;;;7.31;86.51
50774;BME280;36745;48.544;8.918;2024-02-04T00:51:47;98463.03;;;7.37;86.08
50774;BME280;36745;48.544;8.918;2024-02-04T00:55:07;98449.72;;;7.29;86.15
50774;BME280;36745;48.544;8.918;2024-02-04T00:58:26;98447.34;;;7.31;86.28
50774;BME280;36745;48.544;8.918;2024-02-04T01:01:46;98447.34;;;7.38;85.93
50774;BME280;36745;48.544;8.918;2024-02-04T01:05:07;98452.84;;;7.31;86.27
50774;BME280;36745;48.544;8.918;2024-02-04T01:08:26;98455.97;;;7.36;86.18
50774;BME280;36745;48.544;8.918;2024-02-04T01:11:46;98452.03;;;7.41;86.32
50774;BME280;36745;48.544;8.918;2024-02-04T01:15:06;98463.03;;;7.34;86.54
50774;BME280;36745;48.544;8.918;2024-02-04T01:18:25;98471.66;;;7.39;86.50
50774;BME280;36745;48.544;8.918;2024-02-04T01:21:45;98471.66;;;7.39;86.37
50774;BME280;36745;48.544;8.918;2024-02-04T01:25:06;98479.50;;;7.37;86.08
50774;BME280;36745;48.544;8.918;2024-02-04T01:28:26;98461.47;;;7.33;86.06
50774;BME280;36745;48.544;8.918;2024-02-04T01:31:45;98440.28;;;7.30;86.07
50774;BME280;36745;48.544;8.918;2024-02-04T01:35:06;98434.44;;;7.28;86.47
50774;BME280;36745;48.544;8.918;2024-02-04T01:38:25;98432.47;;;7.18;86.44
50774;BME280;36745;48.544;8.918;2024-02-04T01:41:45;98423.03;;;7.04;87.17
50774;BME280;36745;48.544;8.918;2024-02-04T01:45:05;98408.16;;;6.98;87.06
50774;BME280;36745;48.544;8.918;2024-02-04T01:48:25;98405.81;;;7.00;86.82
50774;BME280;36745;48.544;8.918;2024-02-04T01:51:45;98414.41;;;6.88;87.11
50774;BME280;36745;48.544;8.918;2024-02-04T01:55:05;98415.53;;;6.73;87.64
50774;BME280;36745;48.544;8.918;2024-02-04T01:58:24;98416.72;;;6.75;87.83
50774;BME280;36745;48.544;8.918;2024-02-04T02:01:44;98432.75;;;6.70;87.73
50774;BME280;36745;48.544;8.918;2024-02-04T02:05:05;98427.28;;;6.77;87.79
50774;BME280;36745;48.544;8.918;2024-02-04T02:08:25;98447.66;;;6.83;87.85
50774;BME280;36745;48.544;8.918;2024-02-04T02:11:47;98449.63;;;6.83;87.92
50774;BME280;36745;48.544;8.918;2024-02-04T02:15:13;98447.66;;;6.83;88.38
50774;BME280;36745;48.544;8.918;2024-02-04T02:18:46;98437.91;;;6.89;88.02
50774;BME280;36745;48.544;8.918;2024-02-04T02:22:29;98441.03;;;6.84;88.24
50774;BME280;36745;48.544;8.918;2024-02-04T02:25:56;98437.47;;;6.77;88.43
50774;BME280;36745;48.544;8.918;2024-02-04T02:29:16;98441.78;;;6.74;88.93
50774;BME280;36745;48.544;8.918;2024-02-04T02:32:35;98437.84;;;6.75;88.86
50774;BME280;36745;48.544;8.918;2024-02-04T02:35:57;98441.41;;;6.79;88.66
50774;BME280;36745;48.544;8.918;2024-02-04T02:39:23;98434.75;;;6.84;88.59
50774;BME280;36745;48.544;8.918;2024-02-04T02:42:46;98432.00;;;6.87;88.98
50774;BME280;36745;48.544;8.918;2024-02-04T02:46:06;98430.06;;;6.91;89.15
50774;BME280;36745;48.544;8.918;2024-02-04T02:49:27;98442.97;;;6.87;89.20
50774;BME280;36745;48.544;8.918;2024-02-04T02:52:46;98430.06;;;6.91;88.97
50774;BME280;36745;48.544;8.918;2024-02-04T02:56:06;98436.72;;;6.94;89.13
50774;BME280;36745;48.544;8.918;2024-02-04T02:59:26;98445.75;;;6.94;89.12
50774;BME280;36745;48.544;8.918;2024-02-04T03:02:46;98431.25;;;6.90;89.10
50774;BME280;36745;48.544;8.918;2024-02-04T03:06:06;98439.81;;;6.78;89.99
50774;BME280;36745;48.544;8.918;2024-02-04T03:09:25;98438.69;;;6.93;89.39
50774;BME280;36745;48.544;8.918;2024-02-04T03:12:45;98447.31;;;7.02;89.12
50774;BME280;36745;48.544;8.918;2024-02-04T03:16:11;98433.59;;;6.95;89.30
50774;BME280;36745;48.544;8.918;2024-02-04T03:19:31;98441.81;;;6.85;89.84
50774;BME280;36745;48.544;8.918;2024-02-04T03:22:51;98447.69;;;6.90;90.03
50774;BME280;36745;48.544;8.918;2024-02-04T03:26:11;98450.44;;;6.97;89.59
50774;BME280;36745;48.544;8.918;2024-02-04T03:29:31;98457.50;;;7.05;89.94
50774;BME280;36745;48.544;8.918;2024-02-04T03:32:51;98455.94;;;7.01;89.73
50774;BME280;36745;48.544;8.918;2024-02-04T03:36:10;98450.47;;;7.01;89.92
50774;BME280;36745;48.544;8.918;2024-02-04T03:39:31;98459.84;;;7.00;89.93
50774;BME280;36745;48.544;8.918;2024-02-04T03:42:50;98448.50;;;7.08;89.58
50774;BME280;36745;48.544;8.918;2024-02-04T03:46:16;98435.97;;;7.00;89.82
50774;BME280;36745;48.544;8.918;2024-02-04T03:49:36;98429.28;;;6.80;90.52
50774;BME280;36745;48.544;8.918;2024-02-04T03:52:56;98428.88;;;6.92;89.98
50774;BME280;36745;48.544;8.918;2024-02-04T03:56:16;98426.16;;;6.89;90.08
50774;BME280;36745;48.544;8.918;2024-02-04T03:59:35;98421.47;;;6.96;90.16
50774;BME280;36745;48.544;8.918;2024-02-04T04:02:55;98408.16;;;6.95;90.07
50774;BME280;36745;48.544;8.918;2024-02-04T04:06:15;98398.75;;;6.99;89.50
50774;BME280;36745;48.544;8.918;2024-02-04T04:09:35;98386.22;;;6.95;88.98
50774;BME280;36745;48.544;8.918;2024-02-04T04:12:54;98391.69;;;6.84;89.99
50774;BME280;36745;48.544;8.918;2024-02-04T04:16:14;98392.06;;;6.79;89.70
50774;BME280;36745;48.544;8.918;2024-02-04T04:19:34;98401.88;;;6.80;90.06
50774;BME280;36745;48.544;8.918;2024-02-04T04:22:55;98404.19;;;6.71;90.19
50774;BME280;36745;48.544;8.918;2024-02-04T04:26:14;98421.41;;;6.68;90.82
50774;BME280;36745;48.544;8.918;2024-02-04T04:29:34;98420.63;;;6.71;90.77
50774;BME280;36745;48.544;8.918;2024-02-04T04:32:54;98429.63;;;6.68;90.98
50774;BME280;36745;48.544;8.918;2024-02-04T04:36:14;98419.84;;;6.74;90.85
50774;BME280;36745;48.544;8.918;2024-02-04T04:39:34;98420.63;;;6.71;90.65
50774;BME280;36745;48.544;8.918;2024-02-04T04:42:54;98412.00;;;6.65;91.21
50774;BME280;36745;48.544;8.918;2024-02-04T04:46:13;98407.69;;;6.61;90.92
50774;BME280;36745;48.544;8.918;2024-02-04T04:49:33;98397.13;;;6.63;91.07
50774;BME280;36745;48.544;8.918;2024-02-04T04:52:53;98407.28;;;6.69;90.72
50774;BME280;36745;48.544;8.918;2024-02-04T04:56:13;98414.34;;;6.63;90.96
50774;BME280;36745;48.544;8.918;2024-02-04T04:59:33;98415.91;;;6.64;91.11
50774;BME280;36745;48.544;8.918;2024-02-04T05:02:52;98415.13;;;6.64;90.76
50774;BME280;36745;48.544;8.918;2024-02-04T05:06:12;98407.28;;;6.59;90.79
50774;BME280;36745;48.544;8.918;2024-02-04T05:09:32;98422.16;;;6.58;90.65
50774;BME280;36745;48.544;8.918;2024-02-04T05:12:52;98429.97;;;6.56;90.75
50774;BME280;36745;48.544;8.918;2024-02-04T05:16:12;98425.28;;;6.60;90.72
50774;BME280;36745;48.544;8.918;2024-02-04T05:19:32;98428.44;;;6.65;90.66
50774;BME280;36745;48.544;8.918;2024-02-04T05:22:51;98430.78;;;6.63;90.45
50774;BME280;36745;48.544;8.918;2024-02-04T05:26:11;98426.81;;;6.54;90.89
50774;BME280;36745;48.544;8.918;2024-02-04T05:29:32;98427.19;;;6.49;91.28
50774;BME280;36745;48.544;8.918;2024-02-04T05:32:51;98441.72;;;6.53;91.76
50774;BME280;36745;48.544;8.918;2024-02-04T05:36:11;98452.31;;;6.58;91.71
50774;BME280;36745;48.544;8.918;2024-02-04T05:39:31;98448.81;;;6.68;91.87
50774;BME280;36745;48.544;8.918;2024-02-04T05:42:51;98449.59;;;6.72;91.69
50774;BME280;36745;48.544;8.918;2024-02-04T05:46:13;98461.34;;;6.69;91.66
50774;BME280;36745;48.544;8.918;2024-02-04T05:49:33;98458.22;;;6.78;91.42
50774;BME280;36745;48.544;8.918;2024-02-04T05:52:53;98457.44;;;6.77;91.43
50774;BME280;36745;48.544;8.918;2024-02-04T05:56:13;98455.91;;;6.83;91.49
50774;BME280;36745;48.544;8.918;2024-02-04T05:59:33;98463.72;;;6.74;91.44
50774;BME280;36745;48.544;8.918;2024-02-04T06:02:53;98449.22;;;6.77;91.34
50774;BME280;36745;48.544;8.918;2024-02-04T06:06:16;98456.69;;;6.80;91.20
50774;BME280;36745;48.544;8.918;2024-02-04T06:09:40;98455.91;;;6.83;91.23
50774;BME280;36745;48.544;8.918;2024-02-04T06:12:59;98462.94;;;6.84;90.83
50774;BME280;36745;48.544;8.918;2024-02-04T06:16:19;98467.25;;;6.85;91.24
50774;BME280;36745;48.544;8.918;2024-02-04T06:19:39;98466.84;;;6.87;90.86
50774;BME280;36745;48.544;8.918;2024-02-04T06:22:59;98462.94;;;6.84;90.83
50774;BME280;36745;48.544;8.918;2024-02-04T06:26:19;98465.28;;;6.82;90.59
50774;BME280;36745;48.544;8.918;2024-02-04T06:29:38;98458.59;;;6.76;90.89
50774;BME280;36745;48.544;8.918;2024-02-04T06:32:59;98460.19;;;6.77;91.32
50774;BME280;36745;48.544;8.918;2024-02-04T06:36:18;98465.25;;;6.68;91.39
50774;BME280;36745;48.544;8.918;2024-02-04T06:39:38;98467.59;;;6.73;91.19
50774;BME280;36745;48.544;8.918;2024-02-04T06:42:58;98471.91;;;6.70;91.25
50774;BME280;36745;48.544;8.918;2024-02-04T06:46:27;98471.91;;;6.70;91.38
50774;BME280;36745;48.544;8.918;2024-02-04T06:49:47;98471.13;;;6.77;91.07
50774;BME280;36745;48.544;8.918;2024-02-04T06:53:07;98466.81;;;6.72;91.31
50774;BME280;36745;48.544;8.918;2024-02-04T06:56:27;98469.94;;;6.67;91.29
50774;BME280;36745;48.544;8.918;2024-02-04T06:59:46;98460.13;;;6.63;91.64
50774;BME280;36745;48.544;8.918;2024-02-04T07:03:06;98461.31;;;6.62;91.70
50774;BME280;36745;48.544;8.918;2024-02-04T07:06:26;98468.38;;;6.66;92.05
50774;BME280;36745;48.544;8.918;2024-02-04T07:09:46;98459.81;;;6.82;91.54
50774;BME280;36745;48.544;8.918;2024-02-04T07:13:06;98455.88;;;6.87;90.96
50774;BME280;36745;48.544;8.918;2024-02-04T07:16:26;98450.41;;;6.80;91.40
50774;BME280;36745;48.544;8.918;2024-02-04T07:19:46;98437.09;;;6.78;92.06
50774;BME280;36745;48.544;8.918;2024-02-04T07:23:05;98430.81;;;6.78;91.99
50774;BME280;36745;48.544;8.918;2024-02-04T07:26:25;98434.00;;;6.90;91.77
50774;BME280;36745;48.544;8.918;2024-02-04T07:29:45;98441.06;;;7.05;91.47
50774;BME280;36745;48.544;8.918;2024-02-04T07:33:06;98426.94;;;7.03;91.36
50774;BME280;36745;48.544;8.918;2024-02-04T07:36:26;98422.25;;;7.04;91.44
50774;BME280;36745;48.544;8.918;2024-02-04T07:39:46;98420.69;;;7.06;90.63
50774;BME280;36745;48.544;8.918;2024-02-04T07:43:06;98426.94;;;6.89;91.32
50774;BME280;36745;48.544;8.918;2024-02-04T07:46:25;98432.78;;;6.91;91.36
50774;BME280;36745;48.544;8.918;2024-02-04T07:49:45;98432.81;;;6.98;91.76
50774;BME280;36745;48.544;8.918;2024-02-04T07:53:05;98445.38;;;7.21;91.57
50774;BME280;36745;48.544;8.918;2024-02-04T07:56:25;98446.56;;;7.20;90.96
50774;BME280;36745;48.544;8.918;2024-02-04T07:59:45;98443.44;;;7.32;91.02
50774;BME280;36745;48.544;8.918;2024-02-04T08:03:04;98428.53;;;7.29;90.15
50774;BME280;36745;48.544;8.918;2024-02-04T08:06:24;98424.63;;;7.34;89.78
50774;BME280;36745;48.544;8.918;2024-02-04T08:09:45;98417.56;;;7.22;89.77
50774;BME280;36745;48.544;8.918;2024-02-04T08:13:04;98409.72;;;7.35;89.71
50774;BME280;36745;48.544;8.918;2024-02-04T08:16:24;98421.47;;;7.46;89.32
50774;BME280;36745;48.544;8.918;2024-02-04T08:19:44;98428.16;;;7.66;89.21
50774;BME280;36745;48.544;8.918;2024-02-04T08:23:04;98418.31;;;7.62;88.42
50774;BME280;36745;48.544;8.918;2024-02-04T08:26:23;98418.72;;;7.74;88.53
50774;BME280;36745;48.544;8.918;2024-02-04T08:29:43;98415.56;;;7.72;88.20
50774;BME280;36745;48.544;8.918;2024-02-04T08:33:03;98425.38;;;7.80;87.90
50774;BME280;36745;48.544;8.918;2024-02-04T08:36:23;98423.00;;;7.89;87.42
50774;BME280;36745;48.544;8.918;2024-02-04T08:39:43;98417.09;;;7.98;87.46
50774;BME280;36745;48.544;8.918;2024-02-04T08:43:03;98410.44;;;7.88;86.80
50774;BME280;36745;48.544;8.918;2024-02-04T08:46:23;98412.44;;;7.77;86.61
50774;BME280;36745;48.544;8.918;2024-02-04T08:49:43;98417.47;;;8.07;86.96
50774;BME280;36745;48.544;8.918;2024-02-04T08:53:02;98417.50;;;7.96;86.73
50774;BME280;36745;48.544;8.918;2024-02-04T08:56:22;98430.38;;;8.17;86.57
50774;BME280;36745;48.544;8.918;2024-02-04T08:59:42;98437.78;;;8.38;86.34
50774;BME280;36745;48.544;8.918;2024-02-04T09:03:02;98443.75;;;8.08;85.37
50774;BME280;36745;48.544;8.918;2024-02-04T09:06:21;98438.66;;;8.03;85.55
50774;BME280;36745;48.544;8.918;2024-02-04T09:09:41;98431.63;;;7.84;86.12
50774;BME280;36745;48.544;8.918;2024-02-04T09:13:01;98428.13;;;7.87;86.83
50774;BME280;36745;48.544;8.918;2024-02-04T09:16:21;98427.25;;;8.05;86.16
50774;BME280;36745;48.544;8.918;2024-02-04T09:19:41;98443.38;;;8.10;86.20
50774;BME280;36745;48.544;8.918;2024-02-04T09:23:00;98452.72;;;8.23;85.97
50774;BME280;36745;48.544;8.918;2024-02-04T09:26:20;98441.34;;;8.21;85.96
50774;BME280;36745;48.544;8.918;2024-02-04T09:29:40;98429.59;;;8.31;85.30
50774;BME280;36745;48.544;8.918;2024-02-04T09:33:00;98426.78;;;8.38;85.46
50774;BME280;36745;48.544;8.918;2024-02-04T09:36:20;98423.34;;;8.06;86.46
50774;BME280;36745;48.544;8.918;2024-02-04T09:39:42;98413.56;;;8.01;86.73
50774;BME280;36745;48.544;8.918;2024-02-04T09:43:02;98426.84;;;8.17;86.70
50774;BME280;36745;48.544;8.918;2024-02-04T09:46:22;98432.38;;;8.10;86.77
50774;BME280;36745;48.544;8.918;2024-02-04T09:49:42;98439.38;;;8.25;86.36
50774;BME280;36745;48.544;8.918;2024-02-04T09:53:03;98445.59;;;8.50;85.96
50774;BME280;36745;48.544;8.918;2024-02-04T09:56:28;98451.44;;;8.59;84.92
50774;BME280;36745;48.544;8.918;2024-02-04T09:59:49;98447.91;;;8.62;84.54
50774;BME280;36745;48.544;8.918;2024-02-04T10:03:08;98456.09;;;8.73;84.61
50774;BME280;36745;48.544;8.918;2024-02-04T10:06:28;98460.38;;;8.84;84.13
50774;BME280;36745;48.544;8.918;2024-02-04T10:09:48;98446.13;;;8.97;83.25
50774;BME280;36745;48.544;8.918;2024-02-04T10:13:08;98453.59;;;9.00;82.72
50774;BME280;36745;48.544;8.918;2024-02-04T10:16:29;98453.59;;;9.00;83.08
50774;BME280;36745;48.544;8.918;2024-02-04T10:19:49;98451.69;;;8.90;83.15
50774;BME280;36745;48.544;8.918;2024-02-04T10:23:08;98437.38;;;9.16;82.94
50774;BME280;36745;48.544;8.918;2024-02-04T10:26:29;98420.84;;;9.23;81.77
50774;BME280;36745;48.544;8.918;2024-02-04T10:29:54;98410.94;;;9.29;80.41
50774;BME280;36745;48.544;8.918;2024-02-04T10:33:15;98409.41;;;9.28;80.38
50774;BME280;36745;48.544;8.918;2024-02-04T10:36:34;98399.75;;;9.50;80.57
50774;BME280;36745;48.544;8.918;2024-02-04T10:39:54;98357.44;;;9.37;80.08
50774;BME280;36745;48.544;8.918;2024-02-04T10:43:14;98348.63;;;9.12;80.22
50774;BME280;36745;48.544;8.918;2024-02-04T10:46:35;98406.53;;;9.42;80.55
50774;BME280;36745;48.544;8.918;2024-02-04T10:49:58;98383.41;;;9.74;80.54
50774;BME280;36745;48.544;8.918;2024-02-04T10:53:19;98373.53;;;9.35;78.66
50774;BME280;36745;48.544;8.918;2024-02-04T10:56:44;98371.38;;;9.16;79.78
50774;BME280;36745;48.544;8.918;2024-02-04T11:00:04;98375.28;;;9.15;80.12
50774;BME280;36745;48.544;8.918;2024-02-04T11:03:28;98379.63;;;9.16;79.52
50774;BME280;36745;48.544;8.918;2024-02-04T11:06:49;98363.16;;;9.09;79.57
50774;BME280;36745;48.544;8.918;2024-02-04T11:10:10;98381.22;;;9.10;80.45
50774;BME280;36745;48.544;8.918;2024-02-04T11:13:31;98368.91;;;9.25;80.67
50774;BME280;36745;48.544;8.918;2024-02-04T11:17:12;98393.50;;;9.46;79.77
50774;BME280;36745;48.544;8.918;2024-02-04T11:21:01;98379.59;;;9.64;79.34
50774;BME280;36745;48.544;8.918;2024-02-04T11:28:20;98362.44;;;9.87;77.74
50774;BME280;36745;48.544;8.918;2024-02-04T11:31:40;98364.38;;;9.90;77.41
50774;BME280;36745;48.544;8.918;2024-02-04T11:35:00;98354.91;;;9.91;77.33
50774;BME280;36745;48.544;8.918;2024-02-04T11:38:22;98345.25;;;10.09;76.87
50774;BME280;36745;48.544;8.918;2024-02-04T11:41:46;98346.41;;;10.12;77.15
50774;BME280;36745;48.544;8.918;2024-02-04T11:45:09;98335.00;;;10.10;76.71
50774;BME280;36745;48.544;8.918;2024-02-04T11:48:35;98326.88;;;10.33;76.13
50774;BME280;36745;48.544;8.918;2024-02-04T11:51:56;98318.78;;;10.49;75.25
50774;BME280;36745;48.544;8.918;2024-02-04T11:55:15;98312.28;;;10.63;75.27
50774;BME280;36745;48.544;8.918;2024-02-04T11:58:36;98318.63;;;11.10;75.05
50774;BME280;36745;48.544;8.918;2024-02-04T12:01:56;98320.31;;;11.27;73.44
50774;BME280;36745;48.544;8.918;2024-02-04T12:05:17;98322.81;;;11.42;73.06
50774;BME280;36745;48.544;8.918;2024-02-04T12:08:37;98318.25;;;11.55;72.56
50774;BME280;36745;48.544;8.918;2024-02-04T12:11:57;98305.00;;;12.09;70.32
50774;BME280;36745;48.544;8.918;2024-02-04T12:15:17;98305.16;;;12.38;68.52
50774;BME280;36745;48.544;8.918;2024-02-04T12:18:50;98292.16;;;11.79;69.48
50774;BME280;36745;48.544;8.918;2024-02-04T12:22:10;98291.69;;;11.61;71.00
50774;BME280;36745;48.544;8.918;2024-02-04T12:25:31;98291.97;;;11.66;70.70
50774;BME280;36745;48.544;8.918;2024-02-04T12:28:51;98295.22;;;11.42;70.88
50774;BME280;36745;48.544;8.918;2024-02-04T12:32:13;98301.53;;;11.42;70.60
50774;BME280;36745;48.544;8.918;2024-02-04T12:35:33;98288.50;;;11.62;71.00
50774;BME280;36745;48.544;8.918;2024-02-04T12:38:54;98285.97;;;11.71;70.40
50774;BME280;36745;48.544;8.918;2024-02-04T12:42:17;98284.38;;;11.74;71.29
50774;BME280;36745;48.544;8.918;2024-02-04T12:45:39;98288.47;;;11.66;70.51
50774;BME280;36745;48.544;8.918;2024-02-04T12:48:59;98283.19;;;11.75;70.57
50774;BME280;36745;48.544;8.918;2024-02-04T12:52:20;98278.06;;;11.93;71.61
50774;BME280;36745;48.544;8.918;2024-02-04T12:55:39;98277.72;;;11.91;69.64
50774;BME280;36745;48.544;8.918;2024-02-04T12:58:59;98264.91;;;11.81;70.10
50774;BME280;36745;48.544;8.918;2024-02-04T13:02:19;98272.91;;;11.75;69.47
50774;BME280;36745;48.544;8.918;2024-02-04T13:05:40;98269.72;;;11.77;69.52
50774;BME280;36745;48.544;8.918;2024-02-04T13:09:01;98269.06;;;11.89;70.45
50774;BME280;36745;48.544;8.918;2024-02-04T13:12:20;98268.25;;;11.92;69.36
50774;BME280;36745;48.544;8.918;2024-02-04T13:15:42;98259.22;;;11.88;69.71
50774;BME280;36745;48.544;8.918;2024-02-04T13:19:02;98264.75;;;11.88;69.59
50774;BME280;36745;48.544;8.918;2024-02-04T13:22:22;98259.28;;;12.04;69.90
50774;BME280;36745;48.544;8.918;2024-02-04T13:25:42;98253.59;;;12.11;69.19
50774;BME280;36745;48.544;8.918;2024-02-04T13:29:01;98259.72;;;11.83;70.03
50774;BME280;36745;48.544;8.918;2024-02-04T13:32:22;98264.66;;;11.72;70.18
50774;BME280;36745;48.544;8.918;2024-02-04T13:35:42;98266.63;;;11.52;70.68
50774;BME280;36745;48.544;8.918;2024-02-04T13:39:02;98253.94;;;11.34;71.10
50774;BME280;36745;48.544;8.918;2024-02-04T13:42:22;98262.34;;;11.27;71.74
50774;BME280;36745;48.544;8.918;2024-02-04T13:45:42;98257.94;;;11.10;71.75
50774;BME280;36745;48.544;8.918;2024-02-04T13:49:02;98256.00;;;11.07;71.97
50774;BME280;36745;48.544;8.918;2024-02-04T13:52:22;98258.16;;;10.96;72.67
50774;BME280;36745;48.544;8.918;2024-02-04T13:55:41;98259.72;;;10.97;72.90
50774;BME280;36745;48.544;8.918;2024-02-04T13:59:01;98260.47;;;11.01;73.08
50774;BME280;36745;48.544;8.918;2024-02-04T14:02:21;98255.28;;;11.03;72.75
50774;BME280;36745;48.544;8.918;2024-02-04T14:05:43;98254.19;;;10.97;72.61
50774;BME280;36745;48.544;8.918;2024-02-04T14:09:03;98258.91;;;11.00;73.21
50774;BME280;36745;48.544;8.918;2024-02-04T14:12:22;98263.44;;;11.10;72.97
50774;BME280;36745;48.544;8.918;2024-02-04T14:15:42;98251.81;;;10.99;72.93
50774;BME280;36745;48.544;8.918;2024-02-04T14:19:02;98252.78;;;10.89;72.86
50774;BME280;36745;48.544;8.918;2024-02-04T14:22:22;98268.13;;;10.90;73.22
50774;BME280;36745;48.544;8.918;2024-02-04T14:25:42;98263.34;;;10.94;73.58
50774;BME280;36745;48.544;8.918;2024-02-04T14:29:02;98267.88;;;11.04;73.24
50774;BME280;36745;48.544;8.918;2024-02-04T14:32:21;98271.09;;;10.76;73.20
50774;BME280;36745;48.544;8.918;2024-02-04T14:35:41;98278.50;;;10.56;73.35
50774;BME280;36745;48.544;8.918;2024-02-04T14:39:01;98277.19;;;10.37;74.05
50774;BME280;36745;48.544;8.918;2024-02-04T14:42:21;98284.03;;;10.56;74.15
50774;BME280;36745;48.544;8.918;2024-02-04T14:45:41;98293.41;;;10.62;74.31
50774;BME280;36745;48.544;8.918;2024-02-04T14:49:00;98293.28;;;10.69;73.85
50774;BME280;36745;48.544;8.918;2024-02-04T14:52:20;98296.47;;;10.67;73.86
50774;BME280;36745;48.544;8.918;2024-02-04T14:55:40;98306.00;;;10.63;73.94
50774;BME280;36745;48.544;8.918;2024-02-04T14:59:00;98310.50;;;10.49;73.78
50774;BME280;36745;48.544;8.918;2024-02-04T15:02:20;98300.25;;;10.23;74.07
50774;BME280;36745;48.544;8.918;2024-02-04T15:05:40;98298.78;;;10.11;74.47
50774;BME280;36745;48.544;8.918;2024-02-04T15:09:00;98312.97;;;10.10;74.82
50774;BME280;36745;48.544;8.918;2024-02-04T15:12:20;98312.91;;;10.17;74.87
50774;BME280;36745;48.544;8.918;2024-02-04T15:15:40;98310.09;;;10.21;74.64
50774;BME280;36745;48.544;8.918;2024-02-04T15:19:00;98312.50;;;10.19;74.61
50774;BME280;36745;48.544;8.918;2024-02-04T15:22:19;98306.81;;;9.99;75.50
50774;BME280;36745;48.544;8.918;2024-02-04T15:25:39;98302.84;;;10.00;75.75
50774;BME280;36745;48.544;8.918;2024-02-04T15:29:03;98306.81;;;9.99;75.89
50774;BME280;36745;48.544;8.918;2024-02-04T15:32:23;98311.34;;;10.16;75.64
50774;BME280;36745;48.544;8.918;2024-02-04T15:35:43;98306.16;;;10.22;75.92
50774;BME280;36745;48.544;8.918;2024-02-04T15:39:02;98304.59;;;10.21;76.00
50774;BME280;36745;48.544;8.918;2024-02-04T15:42:25;98299.63;;;10.08;76.68
50774;BME280;36745;48.544;8.918;2024-02-04T15:45:45;98310.53;;;10.16;76.74
50774;BME280;36745;48.544;8.918;2024-02-04T15:49:06;98307.44;;;10.14;76.96
50774;BME280;36745;48.544;8.918;2024-02-04T15:52:29;98301.81;;;10.21;76.97
50774;BME280;36745;48.544;8.918;2024-02-04T15:55:51;98297.16;;;10.18;76.60
50774;BME280;36745;48.544;8.918;2024-02-04T15:59:12;98283.63;;;9.96;77.17
50774;BME280;36745;48.544;8.918;2024-02-04T16:02:33;98288.09;;;9.87;77.59
50774;BME280;36745;48.544;8.918;2024-02-04T16:05:55;98282.91;;;9.58;78.31
50774;BME280;36745;48.544;8.918;2024-02-04T16:09:15;98283.19;;;9.30;79.04
50774;BME280;36745;48.544;8.918;2024-02-04T16:12:38;98286.44;;;9.18;79.82
50774;BME280;36745;48.544;8.918;2024-02-04T16:16:01;98287.25;;;9.15;79.73
50774;BME280;36745;48.544;8.918;2024-02-04T16:19:21;98294.34;;;9.16;79.79
50774;BME280;36745;48.544;8.918;2024-02-04T16:22:41;98288.88;;;9.09;79.77
50774;BME280;36745;48.544;8.918;2024-02-04T16:26:01;98291.28;;;9.07;80.22
50774;BME280;36745;48.544;8.918;2024-02-04T16:29:21;98288.94;;;9.02;80.22
50774;BME280;36745;48.544;8.918;2024-02-04T16:32:47;98287.72;;;9.10;79.93
50774;BME280;36745;48.544;8.918;2024-02-04T16:36:07;98289.78;;;8.99;79.89
50774;BME280;36745;48.544;8.918;2024-02-04T16:39:30;98301.66;;;8.89;80.39
50774;BME280;36745;48.544;8.918;2024-02-04T16:42:51;98307.19;;;8.81;80.87
50774;BME280;36745;48.544;8.918;2024-02-04T16:46:11;98301.81;;;8.67;80.93
50774;BME280;36745;48.544;8.918;2024-02-04T16:49:30;98299.66;;;8.34;83.15
50774;BME280;36745;48.544;8.918;2024-02-04T16:52:50;98298.91;;;8.30;83.12
50774;BME280;36745;48.544;8.918;2024-02-04T16:56:10;98300.09;;;8.25;83.02
50774;BME280;36745;48.544;8.918;2024-02-04T16:59:30;98305.97;;;8.24;83.50
50774;BME280;36745;48.544;8.918;2024-02-04T17:02:50;98314.59;;;8.26;83.26
50774;BME280;36745;48.544;8.918;2024-02-04T17:06:10;98321.63;;;8.34;82.90
50774;BME280;36745;48.544;8.918;2024-02-04T17:09:30;98316.97;;;8.20;84.19
50774;BME280;36745;48.544;8.918;2024-02-04T17:12:50;98307.53;;;8.25;83.68
50774;BME280;36745;48.544;8.918;2024-02-04T17:20:18;98306.00;;;8.17;84.08
50774;BME280;36745;48.544;8.918;2024-02-04T17:23:45;98292.00;;;7.93;85.31
50774;BME280;36745;48.544;8.918;2024-02-04T17:27:09;98297.50;;;7.86;85.01
50774;BME280;36745;48.544;8.918;2024-02-04T17:30:31;98297.56;;;7.76;85.58
50774;BME280;36745;48.544;8.918;2024-02-04T17:33:54;98289.31;;;7.72;86.34
50774;BME280;36745;48.544;8.918;2024-02-04T17:37:14;98300.69;;;7.74;86.10
50774;BME280;36745;48.544;8.918;2024-02-04T17:40:33;98295.63;;;7.66;86.76
50774;BME280;36745;48.544;8.918;2024-02-04T17:43:54;98296.03;;;7.64;86.49
50774;BME280;36745;48.544;8.918;2024-02-04T17:47:15;98293.25;;;7.68;86.33
50774;BME280;36745;48.544;8.918;2024-02-04T17:50:34;98303.84;;;7.62;86.82
50774;BME280;36745;48.544;8.918;2024-02-04T17:53:54;98308.59;;;7.51;87.57
50774;BME280;36745;48.544;8.918;2024-02-04T17:57:14;98305.47;;;7.52;87.45
50774;BME280;36745;48.544;8.918;2024-02-04T18:00:34;98310.94;;;7.56;87.11